createdAt,value
2023-01-17T00:03:07.397Z,20.00
2023-01-17T00:08:31.518Z,15.15
2023-01-17T00:13:34.192Z,17.67
2023-01-17T00:18:36.890Z,18.27
2023-01-17T00:23:58.282Z,16.70
2023-01-17T00:29:00.749Z,15.90
2023-01-17T00:34:03.314Z,15.45
2023-01-17T00:39:05.762Z,14.52
2023-01-17T00:44:27.001Z,15.50
2023-01-17T00:49:48.021Z,11.55
2023-01-17T00:55:09.176Z,19.10
2023-01-17T01:00:30.617Z,14.90
2023-01-17T01:05:51.821Z,13.90
2023-01-17T01:11:13.299Z,15.13
2023-01-17T01:16:35.285Z,15.27
2023-01-17T01:27:17.347Z,17.92
2023-01-17T01:32:38.364Z,15.73
2023-01-17T01:37:40.953Z,15.13
2023-01-17T01:42:57.124Z,16.20
2023-01-17T01:48:06.204Z,14.98
2023-01-17T01:53:08.931Z,16.83
2023-01-17T01:58:16.429Z,15.48
2023-01-17T02:03:27.409Z,17.33
2023-01-17T02:08:31.431Z,14.23
2023-01-17T02:13:34.073Z,14.32
2023-01-17T02:18:56.450Z,15.55
2023-01-17T02:24:23.639Z,16.10
2023-01-17T02:29:41.136Z,19.52
2023-01-17T02:34:49.513Z,18.02
2023-01-17T02:39:59.965Z,18.65
2023-01-17T02:45:03.059Z,19.48
2023-01-17T02:50:31.935Z,18.80
2023-01-17T02:55:57.788Z,20.88
2023-01-17T03:01:27.883Z,20.75
2023-01-17T03:06:58.756Z,24.73
2023-01-17T03:12:01.379Z,21.17
2023-01-17T03:17:04.595Z,21.65
2023-01-17T03:22:07.129Z,24.23
2023-01-17T03:27:09.686Z,24.40
2023-01-17T03:32:12.201Z,22.17
2023-01-17T03:37:15.165Z,20.38
2023-01-17T03:42:17.932Z,20.95
2023-01-17T03:47:20.517Z,25.92
2023-01-17T03:52:23.109Z,20.08
2023-01-17T03:57:25.701Z,21.90
2023-01-17T04:02:29.235Z,23.27
2023-01-17T04:07:31.808Z,25.27
2023-01-17T04:12:34.393Z,25.27
2023-01-17T04:17:37.054Z,21.88
2023-01-17T04:22:39.712Z,20.52
2023-01-17T04:27:42.256Z,23.60
2023-01-17T04:32:44.875Z,22.55
2023-01-17T04:37:47.553Z,40.88
2023-01-17T04:42:51.411Z,28.17
2023-01-17T04:47:58.771Z,23.08
2023-01-17T04:53:01.350Z,25.08
2023-01-17T04:58:03.929Z,28.27
2023-01-17T05:03:07.868Z,28.48
2023-01-17T05:08:10.565Z,26.80
2023-01-17T05:13:13.221Z,29.13
2023-01-17T05:18:17.677Z,25.20
2023-01-17T05:23:20.269Z,24.65
2023-01-17T05:28:22.771Z,24.20
2023-01-17T05:33:25.325Z,23.55
2023-01-17T05:38:27.869Z,21.63
2023-01-17T05:43:30.576Z,28.52
2023-01-17T05:48:33.155Z,22.50
2023-01-17T05:53:35.782Z,24.52
2023-01-17T05:58:40.118Z,20.70
2023-01-17T06:03:42.655Z,25.95
2023-01-17T06:08:45.785Z,24.85
2023-01-17T06:13:48.993Z,22.27
2023-01-17T06:18:51.588Z,23.65
2023-01-17T06:23:55.401Z,24.00
2023-01-17T06:28:58.087Z,21.42
2023-01-17T06:34:04.821Z,25.35
2023-01-17T06:39:07.489Z,25.60
2023-01-17T06:44:10.389Z,24.25
2023-01-17T06:49:13.090Z,23.17
2023-01-17T06:54:15.779Z,26.05
2023-01-17T06:59:18.470Z,23.02
2023-01-17T07:04:21.069Z,23.63
2023-01-17T07:09:24.282Z,22.67
2023-01-17T07:14:27.006Z,25.67
2023-01-17T07:19:29.768Z,28.52
2023-01-17T07:24:34.308Z,24.92
2023-01-17T07:29:36.944Z,23.88
2023-01-17T07:34:39.510Z,23.67
2023-01-17T07:39:42.151Z,22.85
2023-01-17T07:44:45.542Z,23.48
2023-01-17T07:49:48.086Z,28.02
2023-01-17T07:54:50.792Z,24.60
2023-01-17T07:59:53.347Z,24.30
2023-01-17T08:05:00.845Z,24.45
2023-01-17T08:10:06.821Z,23.42
2023-01-17T08:15:10.298Z,23.05
2023-01-17T08:20:13.168Z,26.60
2023-01-17T08:25:18.750Z,28.60
2023-01-17T08:30:21.341Z,26.45
2023-01-17T08:35:23.920Z,26.63
2023-01-17T08:40:26.861Z,28.02
2023-01-17T08:45:29.489Z,29.77
2023-01-17T08:50:32.041Z,27.98
2023-01-17T08:55:39.564Z,24.42
2023-01-17T09:00:42.108Z,27.23
2023-01-17T09:05:44.814Z,29.98
2023-01-17T09:10:47.398Z,23.13
2023-01-17T09:15:50.128Z,25.15
2023-01-17T09:20:55.282Z,28.27
2023-01-17T09:25:59.900Z,28.63
2023-01-17T09:31:07.483Z,28.98
2023-01-17T09:36:11.012Z,25.55
2023-01-17T09:41:30.137Z,24.80
2023-01-17T09:46:38.611Z,29.58
2023-01-17T09:51:42.698Z,25.42
2023-01-17T09:56:54.661Z,25.05
2023-01-17T10:02:51.608Z,29.00
2023-01-17T10:08:01.226Z,29.50
2023-01-17T10:13:19.462Z,31.80
2023-01-17T10:18:30.505Z,26.67
2023-01-17T10:23:46.976Z,26.23
2023-01-17T10:28:53.085Z,29.75
2023-01-17T10:33:57.970Z,28.17
2023-01-17T10:39:19.400Z,27.77
2023-01-17T10:44:27.605Z,29.55
2023-01-17T10:49:30.893Z,24.80
2023-01-17T10:55:10.447Z,31.17
2023-01-17T11:00:22.002Z,30.13
2023-01-17T11:05:28.845Z,30.70
2023-01-17T11:10:49.472Z,29.33
2023-01-17T11:16:00.834Z,33.25
2023-01-17T11:21:16.204Z,34.38
2023-01-17T11:26:30.427Z,30.95
2023-01-17T11:31:32.987Z,29.77
2023-01-17T11:36:35.705Z,33.03
2023-01-17T11:41:41.195Z,29.88
2023-01-17T11:46:43.760Z,29.30
2023-01-17T11:51:46.398Z,33.92
2023-01-17T11:56:50.601Z,33.17
2023-01-17T12:02:38.613Z,33.70
2023-01-17T12:08:18.314Z,31.50
2023-01-17T12:13:58.119Z,28.67
2023-01-17T12:19:32.497Z,28.38
2023-01-17T12:24:53.538Z,27.75
2023-01-17T12:30:10.895Z,30.70
2023-01-17T12:35:33.582Z,34.45
2023-01-17T12:41:00.341Z,28.73
2023-01-17T12:46:27.276Z,31.23
2023-01-17T12:51:37.608Z,35.53
2023-01-17T12:56:52.615Z,29.52
2023-01-17T13:02:00.075Z,30.67
2023-01-17T13:07:20.396Z,27.42
2023-01-17T13:12:29.837Z,28.92
2023-01-17T13:17:45.091Z,34.90
2023-01-17T13:22:48.124Z,34.90
2023-01-17T13:28:13.613Z,34.78
2023-01-17T13:33:34.997Z,38.25
2023-01-17T13:38:57.695Z,31.13
2023-01-17T13:44:19.557Z,27.17
2023-01-17T13:49:34.251Z,27.15
2023-01-17T13:55:04.569Z,26.42
2023-01-17T14:00:16.293Z,23.42
2023-01-17T14:05:39.058Z,25.25
2023-01-17T14:10:52.311Z,22.98
2023-01-17T14:15:55.032Z,25.25
2023-01-17T14:21:10.031Z,25.15
2023-01-17T14:26:21.332Z,22.58
2023-01-17T14:31:24.725Z,24.25
2023-01-17T14:36:32.555Z,25.42
2023-01-17T14:41:35.149Z,32.67
2023-01-17T14:46:37.743Z,24.85
2023-01-17T14:51:40.254Z,28.38
2023-01-17T14:56:42.774Z,26.17
2023-01-17T15:02:06.809Z,25.60
2023-01-17T15:07:23.041Z,25.55
2023-01-17T15:12:25.694Z,24.75
2023-01-17T15:17:28.712Z,28.80
2023-01-17T15:22:31.531Z,26.33
2023-01-17T15:27:34.339Z,26.80
2023-01-17T15:32:38.065Z,26.95
2023-01-17T15:37:41.795Z,23.77
2023-01-17T15:42:50.678Z,30.35
2023-01-17T15:47:53.217Z,29.23
2023-01-17T15:52:59.153Z,27.88
2023-01-17T15:58:02.746Z,28.88
2023-01-17T16:03:32.794Z,26.63
2023-01-17T16:08:39.847Z,29.25
2023-01-17T16:13:43.526Z,30.85
2023-01-17T16:18:47.245Z,29.08
2023-01-17T16:23:50.418Z,27.52
2023-01-17T16:28:53.071Z,29.25
2023-01-17T16:33:56.134Z,27.80
2023-01-17T16:38:58.772Z,32.17
2023-01-17T16:44:05.473Z,31.95
2023-01-17T16:49:08.092Z,31.40
2023-01-17T16:54:10.691Z,33.38
2023-01-17T16:59:13.275Z,33.15
2023-01-17T17:04:16.206Z,34.25
2023-01-17T17:09:18.774Z,32.00
2023-01-17T17:14:21.415Z,33.75
2023-01-17T17:19:24.272Z,32.17
2023-01-17T17:24:27.027Z,34.67
2023-01-17T17:29:29.653Z,37.78
2023-01-17T17:34:34.358Z,40.83
2023-01-17T17:39:36.968Z,35.75
2023-01-17T17:44:39.562Z,41.63
2023-01-17T17:49:42.747Z,40.50
2023-01-17T17:54:45.306Z,38.40
2023-01-17T17:59:47.885Z,40.85
2023-01-17T18:04:50.493Z,44.67
2023-01-17T18:09:54.008Z,39.78
2023-01-17T18:14:56.593Z,36.92
2023-01-17T18:19:59.744Z,41.95
2023-01-17T18:25:02.613Z,46.25
2023-01-17T18:30:06.622Z,44.08
2023-01-17T18:35:09.719Z,41.45
2023-01-17T18:40:12.468Z,43.55
2023-01-17T18:45:15.514Z,44.13
2023-01-17T18:50:18.165Z,46.28
2023-01-17T18:55:20.757Z,38.70
2023-01-17T19:00:23.933Z,47.03
2023-01-17T19:05:26.549Z,44.38
2023-01-17T19:10:29.116Z,43.42
2023-01-17T19:15:32.116Z,44.63
2023-01-17T19:20:35.772Z,40.33
2023-01-17T19:25:38.377Z,41.17
2023-01-17T19:30:41.028Z,45.53
2023-01-17T19:35:43.608Z,44.40
2023-01-17T19:40:46.305Z,42.22
2023-01-17T19:45:59.441Z,42.30
2023-01-17T19:51:13.139Z,42.30
2023-01-17T19:56:18.712Z,43.63
2023-01-17T20:01:25.323Z,42.20
2023-01-17T20:06:30.876Z,39.80
2023-01-17T20:11:33.838Z,39.95
2023-01-17T20:16:37.785Z,43.20
2023-01-17T20:21:40.510Z,44.33
2023-01-17T20:26:44.119Z,39.85
2023-01-17T20:31:52.514Z,42.28
2023-01-17T20:36:57.550Z,46.75
2023-01-17T20:42:00.131Z,42.83
2023-01-17T20:47:02.695Z,45.88
2023-01-17T20:52:06.265Z,42.65
2023-01-17T20:57:08.969Z,45.83
2023-01-17T21:02:12.701Z,40.63
2023-01-17T21:07:15.353Z,38.00
2023-01-17T21:12:18.148Z,38.00
2023-01-17T21:17:20.718Z,41.17
2023-01-17T21:22:23.265Z,43.80
2023-01-17T21:27:25.823Z,40.50
2023-01-17T21:32:29.803Z,40.47
2023-01-17T21:37:32.426Z,34.35
2023-01-17T21:42:35.044Z,35.88
2023-01-17T21:47:37.632Z,36.13
2023-01-17T21:52:40.259Z,37.25
2023-01-17T21:58:01.391Z,44.63
2023-01-17T22:03:04.042Z,49.87
2023-01-17T22:08:12.569Z,42.13
2023-01-17T22:13:18.449Z,43.92
2023-01-17T22:18:21.025Z,42.60
2023-01-17T22:23:23.711Z,47.63
2023-01-17T22:28:26.271Z,37.53
2023-01-17T22:33:28.769Z,39.78
2023-01-17T22:38:31.915Z,36.22
2023-01-17T22:43:36.380Z,32.67
2023-01-17T22:48:39.969Z,35.92
2023-01-17T22:53:54.461Z,33.53
2023-01-17T22:58:58.889Z,38.13
2023-01-17T23:04:03.921Z,38.65
2023-01-17T23:09:17.340Z,37.83
2023-01-17T23:14:29.131Z,38.58
2023-01-17T23:24:58.678Z,32.97
2023-01-17T23:30:01.844Z,36.97
2023-01-17T23:35:05.975Z,35.20
2023-01-17T23:40:09.521Z,34.75
2023-01-17T23:45:12.080Z,37.40
2023-01-17T23:50:14.719Z,37.83
2023-01-17T23:55:18.159Z,46.45
